createdAt,value
2018-11-21T00:01:18.984Z,1.60
2018-11-21T00:03:59.462Z,1.50
2018-11-21T00:06:41.178Z,1.50
2018-11-21T00:09:21.915Z,1.50
2018-11-21T00:12:01.792Z,1.50
2018-11-21T00:14:42.534Z,1.50
2018-11-21T00:17:22.611Z,1.50
2018-11-21T00:20:03.265Z,1.50
2018-11-21T00:22:44.014Z,1.50
2018-11-21T00:25:23.897Z,1.40
2018-11-21T00:28:03.964Z,1.40
2018-11-21T00:30:44.495Z,1.40
2018-11-21T00:33:25.270Z,1.40
2018-11-21T00:36:05.656Z,1.40
2018-11-21T00:38:45.675Z,1.40
2018-11-21T00:41:26.526Z,1.40
2018-11-21T00:44:07.283Z,1.30
2018-11-21T00:46:47.991Z,1.30
2018-11-21T00:49:28.274Z,1.30
2018-11-21T00:52:08.713Z,1.30
2018-11-21T00:54:49.246Z,1.30
2018-11-21T00:57:28.118Z,1.30
2018-11-21T01:00:08.598Z,1.30
2018-11-21T01:02:48.776Z,1.20
2018-11-21T01:05:29.438Z,1.20
2018-11-21T01:08:10.275Z,1.20
2018-11-21T01:10:51.008Z,1.10
2018-11-21T01:13:31.009Z,1.10
2018-11-21T01:16:11.773Z,1.10
2018-11-21T01:18:51.787Z,1.10
2018-11-21T01:21:31.822Z,1.10
2018-11-21T01:24:12.060Z,1.10
2018-11-21T01:26:52.685Z,1.10
2018-11-21T01:29:33.088Z,1.10
2018-11-21T01:32:13.754Z,1.00
2018-11-21T01:34:53.966Z,1.00
2018-11-21T01:37:34.605Z,1.00
2018-11-21T01:40:14.685Z,0.90
2018-11-21T01:42:55.357Z,1.00
2018-11-21T01:45:35.547Z,0.90
2018-11-21T01:48:15.947Z,0.90
2018-11-21T01:50:56.603Z,0.90
2018-11-21T01:53:37.096Z,0.90
2018-11-21T01:56:17.635Z,0.90
2018-11-21T01:58:58.437Z,1.00
2018-11-21T02:01:38.532Z,0.90
2018-11-21T02:04:19.012Z,0.90
2018-11-21T02:06:59.610Z,0.90
2018-11-21T02:09:39.986Z,0.90
2018-11-21T02:12:20.651Z,0.90
2018-11-21T02:15:01.361Z,0.90
2018-11-21T02:17:41.370Z,0.90
2018-11-21T02:20:21.985Z,0.90
2018-11-21T02:23:02.738Z,0.90
2018-11-21T02:25:43.194Z,0.90
2018-11-21T02:28:24.030Z,0.80
2018-11-21T02:31:04.025Z,0.80
2018-11-21T02:33:44.558Z,0.80
2018-11-21T02:36:25.310Z,0.80
2018-11-21T02:39:05.734Z,0.80
2018-11-21T02:41:45.751Z,0.80
2018-11-21T02:44:26.955Z,0.80
2018-11-21T02:47:07.797Z,0.80
2018-11-21T02:49:48.389Z,0.70
2018-11-21T02:52:29.104Z,0.70
2018-11-21T02:55:09.264Z,0.70
2018-11-21T02:57:49.932Z,0.70
2018-11-21T03:00:30.091Z,0.70
2018-11-21T03:03:10.886Z,0.60
2018-11-21T03:05:51.640Z,0.60
2018-11-21T03:08:31.725Z,0.60
2018-11-21T03:11:11.867Z,0.60
2018-11-21T03:13:51.820Z,0.60
2018-11-21T03:16:31.702Z,0.60
2018-11-21T03:19:11.857Z,0.60
2018-11-21T03:21:51.700Z,0.50
2018-11-21T03:24:31.749Z,0.50
2018-11-21T03:27:12.346Z,0.50
2018-11-21T03:29:53.151Z,0.50
2018-11-21T03:32:33.047Z,0.50
2018-11-21T03:35:13.550Z,0.40
2018-11-21T03:37:53.949Z,0.40
2018-11-21T03:40:34.520Z,0.40
2018-11-21T03:43:15.019Z,0.40
2018-11-21T03:45:55.203Z,0.40
2018-11-21T03:48:35.743Z,0.30
2018-11-21T03:51:16.204Z,0.30
2018-11-21T03:53:56.643Z,0.30
2018-11-21T03:56:37.837Z,0.30
2018-11-21T03:59:17.978Z,0.30
2018-11-21T04:01:58.506Z,0.30
2018-11-21T04:04:39.058Z,0.30
2018-11-21T04:07:19.731Z,0.30
2018-11-21T04:09:59.699Z,0.30
2018-11-21T04:12:40.504Z,0.30
2018-11-21T04:15:20.364Z,0.30
2018-11-21T04:18:01.084Z,0.30
2018-11-21T04:20:41.663Z,0.30
2018-11-21T04:23:22.287Z,0.40
2018-11-21T04:26:02.751Z,0.40
2018-11-21T04:28:43.370Z,0.40
2018-11-21T04:31:24.021Z,0.40
2018-11-21T04:34:04.304Z,0.40
2018-11-21T04:36:45.040Z,0.40
2018-11-21T04:39:25.018Z,0.40
2018-11-21T04:42:05.565Z,0.50
2018-11-21T04:44:45.470Z,0.50
2018-11-21T04:47:25.983Z,0.50
2018-11-21T04:50:06.874Z,0.50
2018-11-21T04:52:47.481Z,0.60
2018-11-21T04:55:28.314Z,0.50
2018-11-21T04:58:08.867Z,0.50
2018-11-21T05:00:49.646Z,0.50
2018-11-21T05:03:30.210Z,0.50
2018-11-21T05:06:10.223Z,0.50
2018-11-21T05:08:50.622Z,0.60
2018-11-21T05:11:30.984Z,0.60
2018-11-21T05:14:11.545Z,0.60
2018-11-21T05:16:52.023Z,0.60
2018-11-21T05:19:32.713Z,0.60
2018-11-21T05:22:13.060Z,0.70
2018-11-21T05:24:53.652Z,0.70
2018-11-21T05:27:34.012Z,0.70
2018-11-21T05:30:14.671Z,0.70
2018-11-21T05:32:54.505Z,0.70
2018-11-21T05:35:35.189Z,0.80
2018-11-21T05:38:15.132Z,0.80
2018-11-21T05:40:55.044Z,0.80
2018-11-21T05:43:35.762Z,0.80
2018-11-21T05:46:16.424Z,0.80
2018-11-21T05:48:56.636Z,0.80
2018-11-21T05:51:37.058Z,0.80
2018-11-21T05:54:17.674Z,0.80
2018-11-21T05:56:58.447Z,0.80
2018-11-21T05:59:38.911Z,0.80
2018-11-21T06:02:19.516Z,0.90
2018-11-21T06:05:41.989Z,0.90
2018-11-21T06:08:21.845Z,0.90
2018-11-21T06:11:04.019Z,0.90
2018-11-21T06:13:44.313Z,0.90
2018-11-21T06:16:24.438Z,0.90
2018-11-21T06:19:04.554Z,0.90
2018-11-21T06:21:44.400Z,0.90
2018-11-21T06:24:24.044Z,1.00
2018-11-21T06:27:03.725Z,1.00
2018-11-21T06:29:43.390Z,1.00
2018-11-21T06:32:24.530Z,1.00
2018-11-21T06:35:07.755Z,1.00
2018-11-21T06:37:49.495Z,1.10
2018-11-21T06:40:30.116Z,1.10
2018-11-21T06:43:10.070Z,1.10
2018-11-21T06:45:50.533Z,1.10
2018-11-21T06:48:30.234Z,1.10
2018-11-21T06:51:09.808Z,1.00
2018-11-21T06:53:49.448Z,1.10
2018-11-21T06:56:29.202Z,1.10
2018-11-21T06:59:08.864Z,1.10
2018-11-21T07:01:49.123Z,1.10
2018-11-21T07:04:28.763Z,1.10
2018-11-21T07:07:08.503Z,1.10
2018-11-21T07:09:48.352Z,1.10
2018-11-21T07:12:28.185Z,1.10
2018-11-21T07:15:08.271Z,1.10
2018-11-21T07:17:48.554Z,1.10
2018-11-21T07:20:28.211Z,1.10
2018-11-21T07:23:07.667Z,1.10
2018-11-21T07:25:47.584Z,1.10
2018-11-21T07:28:27.116Z,1.10
2018-11-21T07:31:07.066Z,1.10
2018-11-21T07:33:46.968Z,1.10
2018-11-21T07:36:26.820Z,1.10
2018-11-21T07:39:07.138Z,1.00
2018-11-21T07:41:46.926Z,1.00
2018-11-21T07:44:27.306Z,1.10
2018-11-21T07:47:07.219Z,1.00
2018-11-21T07:49:47.139Z,1.00
2018-11-21T07:52:27.711Z,1.00
2018-11-21T07:55:08.191Z,1.00
2018-11-21T07:57:49.973Z,1.00
2018-11-21T08:00:30.048Z,1.00
2018-11-21T08:03:09.855Z,1.00
2018-11-21T08:06:09.058Z,1.00
2018-11-21T08:08:58.704Z,1.00
2018-11-21T08:12:01.453Z,1.00
2018-11-21T08:15:00.497Z,1.00
2018-11-21T08:17:59.674Z,1.00
2018-11-21T08:20:59.340Z,1.00
2018-11-21T08:23:47.764Z,1.10
2018-11-21T08:26:38.033Z,1.10
2018-11-21T08:29:18.047Z,1.10
2018-11-21T08:31:58.478Z,1.10
2018-11-21T08:34:38.277Z,1.10
2018-11-21T08:37:18.020Z,1.10
2018-11-21T08:39:57.747Z,1.10
2018-11-21T08:42:37.900Z,1.20
2018-11-21T08:45:17.618Z,1.20
2018-11-21T08:47:57.330Z,1.20
2018-11-21T08:50:36.979Z,1.30
2018-11-21T08:53:16.542Z,1.30
2018-11-21T08:55:56.295Z,1.40
2018-11-21T08:58:36.306Z,1.30
2018-11-21T09:01:15.861Z,1.40
2018-11-21T09:03:55.597Z,1.50
2018-11-21T09:06:35.177Z,1.50
2018-11-21T09:09:15.838Z,1.60
2018-11-21T09:11:55.952Z,1.60
2018-11-21T09:14:35.681Z,1.60
2018-11-21T09:17:15.351Z,1.70
2018-11-21T09:19:54.879Z,1.70
2018-11-21T09:22:34.564Z,1.70
2018-11-21T09:25:14.418Z,1.80
2018-11-21T09:27:54.077Z,1.80
2018-11-21T09:30:33.727Z,1.80
2018-11-21T09:33:13.671Z,1.90
2018-11-21T09:35:53.282Z,1.90
2018-11-21T09:38:32.831Z,2.00
2018-11-21T09:41:12.549Z,2.10
2018-11-21T09:43:52.059Z,2.10
2018-11-21T09:46:32.020Z,2.10
2018-11-21T09:49:11.658Z,2.20
2018-11-21T09:51:51.384Z,2.30
2018-11-21T09:54:30.906Z,2.30
2018-11-21T09:57:10.775Z,2.40
2018-11-21T09:59:50.300Z,2.40
2018-11-21T10:02:30.666Z,2.50
2018-11-21T10:05:11.062Z,2.60
2018-11-21T10:07:51.184Z,2.60
2018-11-21T10:10:30.700Z,2.70
2018-11-21T10:13:10.467Z,2.80
2018-11-21T10:15:50.135Z,2.80
2018-11-21T10:18:30.342Z,2.90
2018-11-21T10:21:12.186Z,3.00
2018-11-21T10:23:52.711Z,3.10
2018-11-21T10:26:32.824Z,3.10
2018-11-21T10:29:12.574Z,3.20
2018-11-21T10:31:52.362Z,3.30
2018-11-21T10:34:32.655Z,3.40
2018-11-21T10:37:12.315Z,3.50
2018-11-21T10:39:51.906Z,3.60
2018-11-21T10:42:31.392Z,3.60
2018-11-21T10:45:11.161Z,3.80
2018-11-21T10:47:50.915Z,3.80
2018-11-21T10:50:30.679Z,3.90
2018-11-21T10:53:11.136Z,4.00
2018-11-21T10:55:50.910Z,4.10
2018-11-21T10:58:31.178Z,4.20
2018-11-21T11:01:22.951Z,4.30
2018-11-21T11:04:15.540Z,4.40
2018-11-21T11:07:14.884Z,4.40
2018-11-21T11:10:16.081Z,4.50
2018-11-21T11:13:18.798Z,4.60
2018-11-21T11:16:18.310Z,4.70
2018-11-21T11:19:17.999Z,4.70
2018-11-21T11:22:20.678Z,4.80
2018-11-21T11:25:09.541Z,4.80
2018-11-21T11:28:14.622Z,4.90
2018-11-21T11:31:11.759Z,5.00
2018-11-21T11:34:11.362Z,5.00
2018-11-21T11:37:10.747Z,5.10
2018-11-21T11:40:11.443Z,5.10
2018-11-21T11:43:11.943Z,5.10
2018-11-21T11:46:11.268Z,5.20
2018-11-21T11:49:10.814Z,5.20
2018-11-21T11:52:11.381Z,5.20
2018-11-21T11:55:10.355Z,5.30
2018-11-21T11:58:11.285Z,5.40
2018-11-21T12:01:10.754Z,5.50
2018-11-21T12:04:13.177Z,5.60
2018-11-21T12:07:12.867Z,5.80
2018-11-21T12:10:15.324Z,5.90
2018-11-21T12:13:17.608Z,6.10
2018-11-21T12:16:23.463Z,6.20
2018-11-21T12:19:28.979Z,6.30
2018-11-21T12:22:28.867Z,6.50
2018-11-21T12:25:24.748Z,6.60
2018-11-21T12:28:24.430Z,6.80
2018-11-21T12:31:26.642Z,6.90
2018-11-21T12:34:25.715Z,7.00
2018-11-21T12:37:28.491Z,7.00
2018-11-21T12:40:33.693Z,7.10
2018-11-21T12:43:33.516Z,7.10
2018-11-21T12:46:34.566Z,7.20
2018-11-21T12:49:31.601Z,7.20
2018-11-21T12:52:31.231Z,7.30
2018-11-21T12:55:11.404Z,7.30
2018-11-21T13:01:10.703Z,7.40
2018-11-21T13:04:16.511Z,7.50
2018-11-21T13:07:21.585Z,7.50
2018-11-21T13:10:24.577Z,7.50
2018-11-21T13:13:23.943Z,7.60
2018-11-21T13:16:29.348Z,7.60
2018-11-21T13:19:34.523Z,7.60
2018-11-21T13:22:40.225Z,7.70
2018-11-21T13:25:30.629Z,7.70
2018-11-21T13:28:30.348Z,7.70
2018-11-21T13:31:35.893Z,7.80
2018-11-21T13:34:35.193Z,7.80
2018-11-21T13:37:32.847Z,7.80
2018-11-21T13:40:24.024Z,7.80
2018-11-21T13:43:24.936Z,7.80
2018-11-21T13:46:25.707Z,7.90
2018-11-21T13:49:24.746Z,7.90
2018-11-21T13:52:30.698Z,7.90
2018-11-21T13:55:11.067Z,7.90
2018-11-21T13:57:51.118Z,7.90
2018-11-21T14:00:30.845Z,7.80
2018-11-21T14:03:10.488Z,7.90
2018-11-21T14:05:50.646Z,7.80
2018-11-21T14:08:30.509Z,7.80
2018-11-21T14:11:10.245Z,7.90
2018-11-21T14:13:50.320Z,7.80
2018-11-21T14:16:29.927Z,7.80
2018-11-21T14:19:09.711Z,7.80
2018-11-21T14:21:49.886Z,7.70
2018-11-21T14:24:29.248Z,7.70
2018-11-21T14:27:09.803Z,7.70
2018-11-21T14:29:52.392Z,7.70
2018-11-21T14:32:35.404Z,7.60
2018-11-21T14:35:18.546Z,7.60
2018-11-21T14:37:58.501Z,7.60
2018-11-21T14:40:40.637Z,7.50
2018-11-21T14:43:22.923Z,7.50
2018-11-21T14:46:02.588Z,7.50
2018-11-21T14:48:42.288Z,7.40
2018-11-21T14:51:24.658Z,7.30
2018-11-21T14:54:08.233Z,7.30
2018-11-21T14:56:48.627Z,7.20
2018-11-21T14:59:28.280Z,7.20
2018-11-21T15:02:07.795Z,7.20
2018-11-21T15:04:47.512Z,7.10
2018-11-21T15:07:31.681Z,7.10
2018-11-21T15:10:14.695Z,7.00
2018-11-21T15:12:54.672Z,7.00
2018-11-21T15:15:35.297Z,6.90
2018-11-21T15:18:17.457Z,6.90
2018-11-21T15:21:03.127Z,6.80
2018-11-21T15:23:43.291Z,6.70
2018-11-21T15:26:26.101Z,6.70
2018-11-21T15:29:08.787Z,6.70
2018-11-21T15:31:51.083Z,6.60
2018-11-21T15:34:33.844Z,6.60
2018-11-21T15:37:14.347Z,6.50
2018-11-21T15:39:54.164Z,6.40
2018-11-21T15:42:37.097Z,6.40
2018-11-21T15:45:20.132Z,6.40
2018-11-21T15:48:04.654Z,6.30
2018-11-21T15:50:50.768Z,6.30
2018-11-21T15:53:30.718Z,6.20
2018-11-21T15:56:10.694Z,6.20
2018-11-21T15:58:50.653Z,6.10
2018-11-21T16:01:30.288Z,6.10
2018-11-21T16:04:10.953Z,6.00
2018-11-21T16:06:50.834Z,5.90
2018-11-21T16:09:30.501Z,5.90
2018-11-21T16:12:13.218Z,5.80
2018-11-21T16:14:53.307Z,5.70
2018-11-21T16:17:33.786Z,5.70
2018-11-21T16:20:15.588Z,5.60
2018-11-21T16:22:56.185Z,5.50
2018-11-21T16:25:39.233Z,5.50
2018-11-21T16:28:18.883Z,5.40
2018-11-21T16:30:59.004Z,5.40
2018-11-21T16:33:44.746Z,5.30
2018-11-21T16:36:27.285Z,5.30
2018-11-21T16:39:07.647Z,5.20
2018-11-21T16:41:47.803Z,5.20
2018-11-21T16:44:27.739Z,5.10
2018-11-21T16:47:07.659Z,5.00
2018-11-21T16:49:47.400Z,5.00
2018-11-21T16:52:32.711Z,4.90
2018-11-21T16:55:13.684Z,4.90
2018-11-21T16:57:57.963Z,4.80
2018-11-21T17:00:38.631Z,4.80
2018-11-21T17:03:19.093Z,4.70
2018-11-21T17:08:39.512Z,4.60
2018-11-21T17:11:19.633Z,4.50
2018-11-21T17:14:04.956Z,4.50
2018-11-21T17:16:45.100Z,4.40
2018-11-21T17:19:34.522Z,4.40
2018-11-21T17:22:26.174Z,4.30
2018-11-21T17:25:05.865Z,4.30
2018-11-21T17:27:48.885Z,4.20
2018-11-21T17:30:29.426Z,4.10
2018-11-21T17:33:10.094Z,4.10
2018-11-21T17:35:49.812Z,4.00
2018-11-21T17:38:33.655Z,4.00
2018-11-21T17:41:14.062Z,3.90
2018-11-21T17:43:53.822Z,3.80
2018-11-21T17:46:39.357Z,3.80
2018-11-21T17:49:19.262Z,3.70
2018-11-21T17:51:59.874Z,3.60
2018-11-21T17:54:40.396Z,3.60
2018-11-21T17:57:27.873Z,3.50
2018-11-21T18:00:02.909Z,3.50
2018-11-21T18:02:43.372Z,3.40
2018-11-21T18:05:30.015Z,3.40
2018-11-21T18:08:10.319Z,3.40
2018-11-21T18:10:50.131Z,3.30
2018-11-21T18:13:32.472Z,3.20
2018-11-21T18:16:12.266Z,3.20
2018-11-21T18:18:52.800Z,3.20
2018-11-21T18:21:35.417Z,3.10
2018-11-21T18:24:15.639Z,3.10
2018-11-21T18:26:56.264Z,3.00
2018-11-21T18:29:36.180Z,3.00
2018-11-21T18:32:16.702Z,2.90
2018-11-21T18:34:56.763Z,2.90
2018-11-21T18:37:37.267Z,2.90
2018-11-21T18:40:19.340Z,2.80
2018-11-21T18:42:59.605Z,2.70
2018-11-21T18:45:47.564Z,2.70
2018-11-21T18:48:29.944Z,2.70
2018-11-21T18:51:12.573Z,2.60
2018-11-21T18:53:54.832Z,2.60
2018-11-21T18:56:34.337Z,2.50
2018-11-21T18:59:24.930Z,2.50
2018-11-21T19:02:08.221Z,2.50
2018-11-21T19:04:51.050Z,2.40
2018-11-21T19:07:32.930Z,2.40
2018-11-21T19:13:29.741Z,2.30
2018-11-21T19:16:16.071Z,2.20
2018-11-21T19:18:56.501Z,2.20
2018-11-21T19:21:36.949Z,2.10
2018-11-21T19:24:17.676Z,2.10
2018-11-21T19:27:02.149Z,2.10
2018-11-21T19:29:42.054Z,2.10
2018-11-21T19:32:22.635Z,2.00
2018-11-21T19:35:02.934Z,2.00
2018-11-21T19:37:43.843Z,1.90
2018-11-21T19:40:24.671Z,1.90
2018-11-21T19:43:07.102Z,1.90
2018-11-21T19:45:52.578Z,1.90
2018-11-21T19:48:35.566Z,1.80
2018-11-21T19:51:16.248Z,1.80
2018-11-21T19:53:56.716Z,1.80
2018-11-21T19:56:37.228Z,1.90
2018-11-21T19:59:19.151Z,1.90
2018-11-21T20:02:06.410Z,1.90
2018-11-21T20:04:47.195Z,1.90
2018-11-21T20:07:27.372Z,1.90
2018-11-21T20:10:08.076Z,1.90
2018-11-21T20:12:51.657Z,1.90
2018-11-21T20:15:34.380Z,1.90
2018-11-21T20:18:19.864Z,1.90
2018-11-21T20:20:59.985Z,1.90
2018-11-21T20:23:43.003Z,1.90
2018-11-21T20:26:23.468Z,1.90
2018-11-21T20:29:03.409Z,1.90
2018-11-21T20:31:43.814Z,1.90
2018-11-21T20:34:24.863Z,1.90
2018-11-21T20:37:05.501Z,1.90
2018-11-21T20:39:46.941Z,1.90
2018-11-21T20:42:28.680Z,1.90
2018-11-21T20:45:08.896Z,1.80
2018-11-21T20:47:50.273Z,1.80
2018-11-21T20:50:30.942Z,1.80
2018-11-21T20:53:11.634Z,1.80
2018-11-21T20:55:53.438Z,1.80
2018-11-21T20:58:33.494Z,1.80
2018-11-21T21:01:16.696Z,1.70
2018-11-21T21:03:56.686Z,1.70
2018-11-21T21:06:36.335Z,1.70
2018-11-21T21:09:16.836Z,1.70
2018-11-21T21:11:57.458Z,1.70
2018-11-21T21:14:39.747Z,1.60
2018-11-21T21:17:23.351Z,1.60
2018-11-21T21:20:03.805Z,1.50
2018-11-21T21:22:44.250Z,1.60
2018-11-21T21:25:28.403Z,1.50
2018-11-21T21:28:08.265Z,1.50
2018-11-21T21:30:50.849Z,1.50
2018-11-21T21:33:30.875Z,1.50
2018-11-21T21:36:13.482Z,1.50
2018-11-21T21:38:53.382Z,1.50
2018-11-21T21:41:32.952Z,1.50
2018-11-21T21:44:12.671Z,1.40
2018-11-21T21:46:54.318Z,1.40
2018-11-21T21:49:33.954Z,1.40
2018-11-21T21:52:14.281Z,1.40
2018-11-21T21:54:56.996Z,1.40
2018-11-21T21:57:37.014Z,1.40
2018-11-21T22:00:23.766Z,1.40
2018-11-21T22:03:32.035Z,1.40
2018-11-21T22:06:13.206Z,1.30
2018-11-21T22:08:55.715Z,1.30
2018-11-21T22:11:45.074Z,1.30
2018-11-21T22:14:24.820Z,1.30
2018-11-21T22:17:07.547Z,1.30
2018-11-21T22:19:47.359Z,1.30
2018-11-21T22:22:32.180Z,1.30
2018-11-21T22:25:14.150Z,1.20
2018-11-21T22:27:54.446Z,1.20
2018-11-21T22:30:34.179Z,1.20
2018-11-21T22:33:16.488Z,1.20
2018-11-21T22:36:02.836Z,1.20
2018-11-21T22:38:40.895Z,1.10
2018-11-21T22:41:20.564Z,1.10
2018-11-21T22:44:03.553Z,1.10
2018-11-21T22:46:43.310Z,1.00
2018-11-21T22:49:23.095Z,1.00
2018-11-21T22:52:02.622Z,1.00
2018-11-21T22:54:42.257Z,1.00
2018-11-21T22:57:21.914Z,1.00
2018-11-21T23:00:01.604Z,1.00
2018-11-21T23:02:41.572Z,1.00
2018-11-21T23:05:21.105Z,1.00
2018-11-21T23:08:00.637Z,1.00
2018-11-21T23:10:40.594Z,1.00
2018-11-21T23:13:21.467Z,1.00
2018-11-21T23:16:01.421Z,1.00
2018-11-21T23:18:41.469Z,1.00
2018-11-21T23:21:21.123Z,1.00
2018-11-21T23:24:00.799Z,1.00
2018-11-21T23:26:41.192Z,1.00
2018-11-21T23:29:20.992Z,1.00
2018-11-21T23:32:01.358Z,1.00
2018-11-21T23:34:41.788Z,1.00
2018-11-21T23:37:21.463Z,1.00
2018-11-21T23:40:00.970Z,1.00
2018-11-21T23:42:41.672Z,1.00
2018-11-21T23:45:22.075Z,1.00
2018-11-21T23:48:01.888Z,0.90
2018-11-21T23:50:41.938Z,0.90
2018-11-21T23:53:21.547Z,0.90
2018-11-21T23:56:01.449Z,0.90
2018-11-21T23:58:41.105Z,0.90
